Time;durP1;ratioP1;P1;durP2;ratioP2;P2;SDS_P1;SDS_P2;PMS_P1;PMS_P2;Temp;Humidity;BMP_temperature;BMP_pressure;BME280_temperature;BME280_humidity;BME280_pressure;Samples;Min_cycle;Max_cycle;Signal;HPM_P1;HPM_P2
2024/01/17 00:02:10;;;;;;;15.68;2.53;;;;;;;10.42;100.00;98017.34;6246784;23;20070;-92
2024/01/17 00:04:37;;;;;;;9.10;2.67;;;;;;;10.89;100.00;98090.91;6248473;23;20044;-92
2024/01/17 00:07:06;;;;;;;11.25;2.40;;;;;;;10.76;100.00;98058.59;6248986;23;20020;-92
2024/01/17 00:09:32;;;;;;;7.75;2.38;;;;;;;10.70;100.00;98056.16;6248749;22;20020;-91
2024/01/17 00:12:02;;;;;;;10.25;2.47;;;;;;;10.59;100.00;98029.13;6248191;23;20048;-92
2024/01/17 00:14:28;;;;;;;;;;;;;;;11.11;100.00;98120.19;6247457;23;20000;-93
2024/01/17 00:16:57;;;;;;;11.25;2.63;;;;;;;10.55;100.00;98011.56;6244874;23;20352;-92
2024/01/17 00:19:23;;;;;;;8.10;3.08;;;;;;;10.98;100.00;98087.88;6248577;23;20024;-92
2024/01/17 00:21:53;;;;;;;6.28;2.20;;;;;;;11.04;100.00;98078.78;6246851;22;20031;-90
2024/01/17 00:24:19;;;;;;;10.80;2.70;;;;;;;11.26;100.00;98110.72;6247124;23;20444;-92
2024/01/17 00:26:45;;;;;;;8.93;3.15;;;;;;;11.27;100.00;98117.75;6248420;23;20016;-92
2024/01/17 00:29:15;;;;;;;9.63;2.45;;;;;;;10.55;100.00;97990.31;6248360;23;20094;-92
2024/01/17 00:31:44;;;;;;;14.20;3.28;;;;;;;11.01;100.00;98074.44;6246325;22;20035;-92
2024/01/17 00:34:13;;;;;;;10.23;2.47;;;;;;;10.75;100.00;98038.22;6248148;22;20044;-93
2024/01/17 00:36:41;;;;;;;12.32;2.63;;;;;;;10.98;100.00;98063.06;6247705;23;20441;-92
2024/01/17 00:39:09;;;;;;;8.02;2.42;;;;;;;10.91;100.00;98043.81;6248215;22;20020;-91
2024/01/17 00:41:34;;;;;;;6.60;2.03;;;;;;;10.74;100.00;98001.09;6248453;22;20051;-91
2024/01/17 00:44:07;;;;;;;8.18;2.38;;;;;;;11.29;100.00;98107.91;6248165;23;20040;-92
2024/01/17 00:46:33;;;;;;;6.38;2.55;;;;;;;10.47;100.00;97956.03;6245877;23;20030;-92
2024/01/17 00:49:01;;;;;;;9.10;2.50;;;;;;;10.33;100.00;97951.28;6248178;23;20316;-91
2024/01/17 00:51:43;;;;;;;11.93;3.13;;;;;;;11.28;100.00;98112.38;6248427;23;20042;-92
2024/01/17 00:54:10;;;;;;;11.13;3.25;;;;;;;10.38;100.00;97945.78;6247970;23;20024;-91
2024/01/17 00:56:39;;;;;;;11.00;2.72;;;;;;;10.36;100.00;97942.31;6248187;22;20476;-91
2024/01/17 00:59:08;;;;;;;8.63;2.90;;;;;;;10.27;100.00;97927.56;6248521;23;20027;-91
2024/01/17 01:01:36;;;;;;;8.45;3.75;;;;;;;10.94;100.00;98040.16;6245989;22;20023;-90
2024/01/17 01:04:02;;;;;;;13.52;2.92;;;;;;;10.35;100.00;97959.19;6248295;22;20016;-93
2024/01/17 01:06:28;;;;;;;9.93;3.00;;;;;;;11.27;100.00;98097.31;6246646;23;20024;-93
2024/01/17 01:08:54;;;;;;;8.10;2.25;;;;;;;11.08;100.00;98061.75;6248244;23;20015;-93
2024/01/17 01:11:28;;;;;;;11.10;2.40;;;;;;;10.91;100.00;98041.16;6248117;22;20016;-94
2024/01/17 01:13:54;;;;;;;13.68;2.60;;;;;;;10.90;100.00;98040.28;6248316;23;20070;-92
2024/01/17 01:16:20;;;;;;;10.68;3.00;;;;;;;11.02;100.00;98070.00;6244492;23;20450;-93
2024/01/17 01:18:51;;;;;;;6.78;2.50;;;;;;;10.58;100.00;97990.16;6249250;22;20087;-91
2024/01/17 01:21:17;;;;;;;8.30;2.50;;;;;;;10.88;100.00;98030.63;6248312;23;20026;-92
2024/01/17 01:23:45;;;;;;;9.00;2.40;;;;;;;10.64;100.00;97980.16;6247751;23;20066;-92
2024/01/17 01:26:13;;;;;;;9.40;2.40;;;;;;;10.22;100.00;97925.09;6247518;22;20023;-91
2024/01/17 01:28:42;;;;;;;14.55;2.95;;;;;;;11.16;100.00;98086.25;6247038;23;20016;-92
2024/01/17 01:31:11;;;;;;;8.82;2.42;;;;;;;10.47;100.00;97966.66;6245197;23;20346;-92
2024/01/17 01:33:36;;;;;;;10.20;1.98;;;;;;;11.02;100.00;98041.59;6248272;22;20066;-94
2024/01/17 01:36:04;;;;;;;5.53;2.05;;;;;;;10.46;100.00;97983.56;6248354;22;20334;-91
2024/01/17 01:38:30;;;;;;;5.47;2.03;;;;;;;10.55;100.00;97993.81;6247859;22;20016;-92
2024/01/17 01:40:58;;;;;;;9.98;2.30;;;;;;;10.33;100.00;97930.03;6247770;22;20027;-91
2024/01/17 01:43:25;;;;;;;6.95;2.17;;;;;;;11.12;100.00;98062.50;6247219;23;20004;-93
2024/01/17 01:46:10;;;;;;;10.38;2.38;;;;;;;10.85;100.00;98021.00;6245377;22;20082;-91
2024/01/17 01:48:36;;;;;;;8.48;1.92;;;;;;;10.47;100.00;97962.25;6247716;22;20017;-93
2024/01/17 01:51:02;;;;;;;9.23;2.00;;;;;;;10.20;100.00;97911.00;6247592;22;20028;-92
2024/01/17 01:53:33;;;;;;;12.48;2.13;;;;;;;10.69;100.00;97982.63;6247347;23;20484;-93
2024/01/17 01:56:04;;;;;;;10.25;2.33;;;;;;;10.68;100.00;97970.28;6246367;23;20020;-93
2024/01/17 01:58:35;;;;;;;11.55;2.60;;;;;;;10.46;100.00;97949.88;6247083;23;20070;-94
2024/01/17 02:01:04;;;;;;;8.77;2.15;;;;;;;10.07;100.00;97876.06;6245724;23;20020;-93
2024/01/17 02:03:30;;;;;;;7.15;2.15;;;;;;;11.13;100.00;98070.44;6248224;23;20030;-93
2024/01/17 02:06:00;;;;;;;8.45;1.98;;;;;;;11.12;100.00;98066.03;6247747;23;20047;-93
2024/01/17 02:08:28;;;;;;;6.45;2.65;;;;;;;10.89;100.00;98040.38;6247941;23;20027;-92
2024/01/17 02:10:55;;;;;;;11.68;2.70;;;;;;;10.90;100.00;98050.06;6246459;22;20016;-93
2024/01/17 02:13:21;;;;;;;5.60;2.28;;;;;;;10.19;100.00;97934.97;6247140;23;20020;-93
2024/01/17 02:15:47;;;;;;;11.95;2.17;;;;;;;10.75;100.00;98030.25;6245486;23;20023;-93
2024/01/17 02:18:17;;;;;;;8.80;1.95;;;;;;;11.05;100.00;98085.81;6247791;23;20051;-92
2024/01/17 02:20:49;;;;;;;7.60;2.25;;;;;;;10.43;100.00;97981.91;6247793;23;20020;-94
2024/01/17 02:23:22;;;;;;;13.02;3.15;;;;;;;10.14;100.00;97915.69;6247702;22;20419;-94
2024/01/17 02:25:52;;;;;;;10.35;3.08;;;;;;;11.01;100.00;98060.28;6247940;22;20012;-94
2024/01/17 02:28:21;;;;;;;10.38;2.47;;;;;;;10.76;100.00;98024.03;6247626;23;20342;-93
2024/01/17 02:30:47;;;;;;;7.47;2.70;;;;;;;10.20;100.00;97931.41;6245505;23;20028;-93
2024/01/17 02:33:16;;;;;;;6.05;2.08;;;;;;;10.40;100.00;97974.03;6247529;23;20016;-91
2024/01/17 02:35:42;;;;;;;7.90;2.13;;;;;;;10.21;100.00;97922.50;6247483;23;20358;-94
2024/01/17 02:38:08;;;;;;;8.25;2.13;;;;;;;11.14;100.00;98061.50;6247631;23;20007;-92
2024/01/17 02:40:37;;;;;;;7.72;2.03;;;;;;;10.22;100.00;97917.13;6247657;22;20012;-93
2024/01/17 02:43:05;;;;;;;5.28;2.17;;;;;;;11.07;100.00;98065.34;6247384;22;20012;-93
2024/01/17 02:45:31;;;;;;;6.00;2.20;;;;;;;10.72;100.00;98005.59;6244347;23;20040;-93
2024/01/17 02:47:57;;;;;;;9.27;2.30;;;;;;;10.13;100.00;97903.31;6247416;23;20027;-92
2024/01/17 02:50:23;;;;;;;5.97;2.92;;;;;;;10.77;100.00;98012.44;6247848;23;20384;-93
2024/01/17 02:52:53;;;;;;;7.88;2.53;;;;;;;10.86;100.00;98037.81;6247721;22;20072;-93
2024/01/17 02:55:19;;;;;;;9.88;2.80;;;;;;;10.88;100.00;98022.66;6247310;22;20058;-92
2024/01/17 02:57:45;;;;;;;6.40;2.72;;;;;;;10.77;100.00;97998.28;6249767;22;20488;-93
2024/01/17 03:00:13;;;;;;;5.93;2.42;;;;;;;10.92;100.00;98018.09;6246621;23;20031;-93
2024/01/17 03:02:39;;;;;;;6.13;2.80;;;;;;;10.71;100.00;97977.25;6249618;23;20058;-93
2024/01/17 03:05:09;;;;;;;9.50;2.83;;;;;;;10.89;100.00;98003.97;6249344;22;20107;-92
2024/01/17 03:07:35;;;;;;;5.65;2.90;;;;;;;10.56;100.00;97955.69;6250883;23;20020;-92
2024/01/17 03:10:01;;;;;;;8.85;2.60;;;;;;;10.22;100.00;97871.94;6249622;23;20024;-92
2024/01/17 03:12:27;;;;;;;6.07;2.63;;;;;;;10.87;100.00;97989.88;6249457;22;20016;-93
2024/01/17 03:14:56;;;;;;;6.32;2.55;;;;;;;10.18;100.00;97888.94;6249375;23;20027;-92
2024/01/17 03:17:27;;;;;;;10.48;2.50;;;;;;;10.33;100.00;97910.56;6247793;22;20020;-92
2024/01/17 03:19:54;;;;;;;5.93;2.20;;;;;;;10.19;100.00;97882.72;6249493;23;20484;-92
2024/01/17 03:22:20;;;;;;;11.23;2.65;;;;;;;10.85;100.00;97985.56;6249551;23;20016;-94
2024/01/17 03:24:48;;;;;;;10.52;2.47;;;;;;;10.93;100.00;98002.06;6249512;23;20078;-93
2024/01/17 03:27:13;;;;;;;7.85;2.33;;;;;;;10.52;100.00;97922.19;6248630;23;20073;-93
2024/01/17 03:29:41;;;;;;;8.02;2.55;;;;;;;11.17;100.00;98025.91;6249563;22;20095;-92
2024/01/17 03:32:07;;;;;;;8.25;2.85;;;;;;;10.80;100.00;97960.91;6247629;23;20323;-92
2024/01/17 03:34:36;;;;;;;11.80;2.90;;;;;;;10.25;100.00;97861.19;6249043;22;20020;-93
2024/01/17 03:37:05;;;;;;;9.40;3.20;;;;;;;11.05;100.00;97992.72;6249195;23;20020;-93
2024/01/17 03:39:33;;;;;;;10.07;2.08;;;;;;;11.03;100.00;97998.09;6249166;23;20004;-93
2024/01/17 03:42:01;;;;;;;7.15;2.50;;;;;;;11.20;100.00;98037.31;6249214;23;20327;-93
2024/01/17 03:44:27;;;;;;;9.45;2.38;;;;;;;11.05;100.00;98012.19;6248995;23;20016;-92
2024/01/17 03:46:55;;;;;;;9.15;3.08;;;;;;;10.23;100.00;97864.84;6246700;23;20027;-92
2024/01/17 03:49:21;;;;;;;10.23;3.08;;;;;;;10.94;100.00;97987.84;6249522;23;20468;-93
2024/01/17 03:51:48;;;;;;;7.60;2.47;;;;;;;10.64;100.00;97921.66;6249227;22;20102;-92
2024/01/17 03:54:14;;;;;;;10.35;3.25;;;;;;;11.08;100.00;97997.88;6249173;22;20328;-93
2024/01/17 03:56:40;;;;;;;9.77;2.58;;;;;;;10.65;100.00;97927.88;6249077;22;20107;-93
2024/01/17 03:59:08;;;;;;;11.85;3.42;;;;;;;10.56;100.00;97917.59;6249486;23;20046;-94
2024/01/17 04:01:41;;;;;;;11.57;2.80;;;;;;;11.01;100.00;98007.06;6247447;22;20327;-94
2024/01/17 04:04:10;;;;;;;11.25;2.92;;;;;;;10.54;100.00;97925.66;6249577;22;20480;-94
2024/01/17 04:06:45;;;;;;;5.30;3.15;;;;;;;11.23;100.00;98039.84;6248989;22;20083;-93
2024/01/17 04:09:12;;;;;;;10.43;2.35;;;;;;;10.39;100.00;97891.72;6249224;23;20023;-94
2024/01/17 04:11:38;;;;;;;10.50;2.70;;;;;;;11.03;100.00;97997.22;6249069;23;20020;-93
2024/01/17 04:14:07;;;;;;;9.70;2.90;;;;;;;10.50;100.00;97896.59;6247748;23;20418;-92
2024/01/17 04:16:36;;;;;;;13.15;3.60;;;;;;;11.05;100.00;97990.91;6246473;22;20357;-92
2024/01/17 04:19:04;;;;;;;7.10;3.25;;;;;;;10.24;100.00;97846.19;6249211;23;20020;-91
2024/01/17 04:21:32;;;;;;;12.02;2.90;;;;;;;11.33;100.00;98015.50;6249301;23;20016;-92
2024/01/17 04:24:00;;;;;;;6.72;2.90;;;;;;;10.58;100.00;97883.84;6248362;23;20111;-92
2024/01/17 04:26:30;;;;;;;11.90;3.17;;;;;;;11.23;100.00;97983.97;6248920;22;20078;-92
2024/01/17 04:28:58;;;;;;;9.07;3.03;;;;;;;11.27;100.00;97990.88;6249372;23;20000;-93
2024/01/17 04:31:25;;;;;;;8.02;2.67;;;;;;;10.64;100.00;97872.94;6247990;23;20026;-92
2024/01/17 04:33:51;;;;;;;12.80;3.60;;;;;;;11.24;100.00;97968.88;6248283;23;20490;-93
2024/01/17 04:36:18;;;;;;;9.93;2.55;;;;;;;11.06;100.00;97927.91;6247342;23;20442;-93
2024/01/17 04:38:49;;;;;;;12.05;2.90;;;;;;;10.41;100.00;97826.94;6247651;22;20016;-93
2024/01/17 04:41:15;;;;;;;8.40;3.00;;;;;;;11.29;100.00;97954.41;6249278;23;20020;-92
2024/01/17 04:43:45;;;;;;;12.07;2.83;;;;;;;10.56;100.00;97838.72;6248683;23;20238;-92
2024/01/17 04:46:12;;;;;;;9.68;2.85;;;;;;;10.39;100.00;97810.19;6247606;22;20095;-92
2024/01/17 04:48:39;;;;;;;10.00;3.00;;;;;;;10.52;100.00;97830.91;6248767;23;20020;-94
2024/01/17 04:51:05;;;;;;;9.90;3.35;;;;;;;10.85;100.00;97895.97;6248717;23;20024;-93
2024/01/17 04:53:32;;;;;;;7.25;3.10;;;;;;;10.85;100.00;97900.44;6249249;23;20016;-92
2024/01/17 04:55:59;;;;;;;8.00;3.15;;;;;;;11.15;100.00;97950.63;6248215;23;20358;-92
2024/01/17 04:58:25;;;;;;;13.98;3.47;;;;;;;10.60;100.00;97853.59;6247702;23;20016;-92
2024/01/17 05:00:52;;;;;;;7.88;3.00;;;;;;;10.66;100.00;97871.09;6246606;23;20027;-92
2024/01/17 05:03:19;;;;;;;10.02;3.05;;;;;;;10.27;100.00;97802.69;6248508;22;20020;-91
2024/01/17 05:05:47;;;;;;;8.70;2.72;;;;;;;10.81;100.00;97880.22;6248435;23;20016;-94
2024/01/17 05:08:16;;;;;;;7.57;2.67;;;;;;;10.96;100.00;97915.94;6248008;23;20043;-92
2024/01/17 05:10:43;;;;;;;9.60;3.03;;;;;;;10.95;100.00;97916.88;6248380;23;20111;-92
2024/01/17 05:13:09;;;;;;;7.90;3.40;;;;;;;10.71;100.00;97874.41;6248565;23;20016;-93
2024/01/17 05:15:35;;;;;;;12.07;3.03;;;;;;;10.36;100.00;97831.56;6246594;23;20016;-94
2024/01/17 05:18:04;;;;;;;8.55;3.38;;;;;;;11.00;100.00;97938.84;6248722;23;20016;-93
2024/01/17 05:20:30;;;;;;;12.25;3.85;;;;;;;11.05;100.00;97943.00;6247680;22;20099;-92
2024/01/17 05:22:58;;;;;;;8.77;2.80;;;;;;;11.04;100.00;97941.31;6247164;23;20331;-94
2024/01/17 05:25:24;;;;;;;7.53;2.53;;;;;;;11.18;100.00;97963.78;6249310;22;20095;-93
2024/01/17 05:27:52;;;;;;;7.30;2.70;;;;;;;11.10;100.00;97970.31;6248665;22;20062;-93
2024/01/17 05:30:21;;;;;;;14.43;3.45;;;;;;;10.16;100.00;97797.81;6247529;23;20047;-93
2024/01/17 05:32:51;;;;;;;8.43;3.00;;;;;;;10.89;100.00;97931.31;6248499;23;20055;-94
2024/01/17 05:35:19;;;;;;;9.32;2.78;;;;;;;10.66;100.00;97898.53;6248089;22;20004;-92
2024/01/17 05:37:53;;;;;;;12.30;3.85;;;;;;;10.69;100.00;97895.78;6248789;23;20107;-93
2024/01/17 05:40:25;;;;;;;6.95;2.42;;;;;;;11.02;100.00;97918.34;6248324;23;20346;-92
2024/01/17 05:42:53;;;;;;;5.93;2.58;;;;;;;10.72;100.00;97870.84;6248018;22;20016;-93
2024/01/17 05:45:21;;;;;;;7.60;2.78;;;;;;;10.67;100.00;97859.53;6246279;23;20017;-92
2024/01/17 05:47:49;;;;;;;10.68;2.80;;;;;;;10.54;100.00;97839.69;6247084;22;20020;-94
2024/01/17 05:50:15;;;;;;;9.57;4.70;;;;;;;10.14;100.00;97794.34;6248202;23;20016;-93
2024/01/17 05:52:43;;;;;;;10.25;2.95;;;;;;;10.71;100.00;97860.25;6248530;23;20020;-92
2024/01/17 05:55:10;;;;;;;6.25;2.10;;;;;;;10.48;100.00;97819.56;6247729;22;20103;-94
2024/01/17 05:57:41;;;;;;;14.85;4.45;;;;;;;10.22;100.00;97772.78;6247933;23;20027;-93
2024/01/17 06:00:09;;;;;;;6.43;3.60;;;;;;;11.13;100.00;97931.22;6246441;23;20021;-92
2024/01/17 06:02:35;;;;;;;8.57;2.50;;;;;;;10.79;100.00;97879.41;6248225;23;20020;-93
2024/01/17 06:05:02;;;;;;;7.40;2.22;;;;;;;10.96;100.00;97924.78;6247667;23;20004;-93
2024/01/17 06:07:28;;;;;;;12.00;2.65;;;;;;;11.05;100.00;97920.88;6247756;23;20020;-93
2024/01/17 06:09:56;;;;;;;4.32;2.28;;;;;;;10.14;100.00;97773.09;6249414;22;20020;-93
2024/01/17 06:12:21;;;;;;;8.57;2.42;;;;;;;11.03;100.00;97925.41;6247265;23;20078;-93
2024/01/17 06:14:48;;;;;;;5.18;2.25;;;;;;;10.93;100.00;97919.63;6248129;23;20454;-93
2024/01/17 06:17:14;;;;;;;6.93;2.20;;;;;;;10.14;100.00;97785.53;6247755;23;20031;-94
2024/01/17 06:19:48;;;;;;;4.72;2.63;;;;;;;10.90;100.00;97887.81;6247744;22;20020;-94
2024/01/17 06:22:19;;;;;;;5.95;2.45;;;;;;;10.11;100.00;97754.63;6248536;22;20051;-93
2024/01/17 06:24:45;;;;;;;8.57;2.65;;;;;;;10.96;100.00;97911.50;6248489;23;20020;-93
2024/01/17 06:27:14;;;;;;;6.28;2.10;;;;;;;10.46;100.00;97816.97;6249365;22;20024;-94
2024/01/17 06:29:43;;;;;;;7.07;2.30;;;;;;;10.25;100.00;97762.03;6251926;22;20020;-93
2024/01/17 06:32:09;;;;;;;8.18;2.83;;;;;;;10.83;100.00;97846.44;6247867;23;20020;-92
2024/01/17 06:34:35;;;;;;;8.60;3.13;;;;;;;10.83;100.00;97843.78;6248545;23;20077;-91
2024/01/17 06:37:01;;;;;;;7.82;2.55;;;;;;;10.33;100.00;97767.91;6248135;22;20020;-93
2024/01/17 06:39:27;;;;;;;5.20;2.20;;;;;;;11.08;100.00;97881.72;6248270;23;20352;-92
2024/01/17 06:41:52;;;;;;;6.50;2.00;;;;;;;11.32;100.00;97926.81;6248099;23;20020;-93
2024/01/17 06:44:20;;;;;;;9.02;2.88;;;;;;;10.30;100.00;97767.16;6247967;23;20027;-93
2024/01/17 06:46:49;;;;;;;6.43;1.95;;;;;;;10.80;100.00;97835.94;6247220;23;20066;-92
2024/01/17 06:49:15;;;;;;;4.97;1.95;;;;;;;10.83;100.00;97815.41;6248226;23;20427;-93
2024/01/17 06:51:41;;;;;;;10.48;3.10;;;;;;;10.60;100.00;97765.00;6249829;23;20083;-93
2024/01/17 06:54:09;;;;;;;4.90;1.90;;;;;;;10.56;100.00;97753.66;6248138;22;20059;-92
2024/01/17 06:56:37;;;;;;;6.05;2.70;;;;;;;10.43;100.00;97752.44;6247696;23;20346;-92
2024/01/17 06:59:04;;;;;;;9.38;2.47;;;;;;;10.75;100.00;97790.06;6246858;23;20054;-92
2024/01/17 07:01:36;;;;;;;6.05;1.98;;;;;;;10.63;100.00;97756.91;6247049;23;20505;-93
2024/01/17 07:04:02;;;;;;;9.40;2.53;;;;;;;11.01;100.00;97819.03;6248107;22;20399;-92
2024/01/17 07:06:28;;;;;;;8.35;2.55;;;;;;;10.55;100.00;97759.88;6248075;23;20047;-91
2024/01/17 07:08:54;;;;;;;9.20;2.10;;;;;;;11.38;100.00;97878.59;6248083;23;20020;-93
2024/01/17 07:11:20;;;;;;;4.93;2.25;;;;;;;10.92;100.00;97792.00;6247627;23;20505;-92
2024/01/17 07:13:52;;;;;;;12.60;2.30;;;;;;;10.98;100.00;97811.22;6246258;23;20070;-91
2024/01/17 07:16:18;;;;;;;9.32;2.70;;;;;;;11.05;100.00;97815.31;6245864;23;20016;-92
2024/01/17 07:18:45;;;;;;;8.60;3.75;;;;;;;11.24;100.00;97835.78;6249280;23;20028;-92
2024/01/17 07:21:11;;;;;;;11.85;3.58;;;;;;;11.16;100.00;97816.63;6248110;23;20107;-92
2024/01/17 07:23:40;;;;;;;6.18;1.90;;;;;;;11.62;100.00;97895.28;6248261;23;20016;-92
2024/01/17 07:26:06;;;;;;;8.40;2.38;;;;;;;11.16;100.00;97824.63;6248427;22;20020;-92
2024/01/17 07:28:32;;;;;;;8.60;3.08;;;;;;;11.82;100.00;97925.47;6248241;23;20077;-93
2024/01/17 07:31:01;;;;;;;7.68;2.85;;;;;;;11.29;100.00;97850.59;6248667;22;20097;-93
2024/01/17 07:33:27;;;;;;;6.43;2.55;;;;;;;10.95;100.00;97782.09;6247833;23;20047;-93
2024/01/17 07:35:54;;;;;;;6.15;2.85;;;;;;;11.72;100.00;97906.41;6247624;23;20023;-93
2024/01/17 07:38:22;;;;;;;4.30;2.28;;;;;;;11.55;100.00;97858.38;6248187;23;20102;-93
2024/01/17 07:40:48;;;;;;;8.45;2.75;;;;;;;11.65;100.00;97884.50;6248321;23;20030;-93
2024/01/17 07:43:14;;;;;;;6.28;2.45;;;;;;;11.08;100.00;97787.69;6247802;23;20028;-93
2024/01/17 07:45:40;;;;;;;6.22;2.38;;;;;;;11.98;100.00;97921.22;6248265;23;20020;-92
2024/01/17 07:48:06;;;;;;;5.45;2.38;;;;;;;11.16;100.00;97758.97;6250032;23;20004;-92
2024/01/17 07:50:32;;;;;;;6.78;2.42;;;;;;;12.12;100.00;97921.44;6249923;23;20505;-93
2024/01/17 07:53:02;;;;;;;6.38;2.22;;;;;;;11.63;100.00;97832.25;6249808;23;20393;-93
2024/01/17 07:55:31;;;;;;;6.68;2.03;;;;;;;11.37;100.00;97788.19;6252299;23;20030;-94
2024/01/17 07:57:58;;;;;;;4.32;2.17;;;;;;;11.29;100.00;97760.13;6252668;23;20070;-92
2024/01/17 08:00:24;;;;;;;7.70;2.17;;;;;;;11.97;100.00;97874.19;6249428;23;20044;-90
2024/01/17 08:02:52;;;;;;;5.00;2.88;;;;;;;11.66;100.00;97798.34;6250598;23;20431;-95
2024/01/17 08:05:18;;;;;;;7.80;2.47;;;;;;;11.82;100.00;97814.47;6249480;23;20020;-93
2024/01/17 08:07:49;;;;;;;9.40;3.72;;;;;;;11.98;100.00;97870.59;6249093;23;20450;-92
2024/01/17 08:10:19;;;;;;;8.43;3.95;;;;;;;12.20;100.00;97889.09;6249357;23;20427;-92
2024/01/17 08:12:47;;;;;;;7.45;2.55;;;;;;;12.18;100.00;97880.28;6249956;23;20020;-93
2024/01/17 08:15:16;;;;;;;9.15;3.17;;;;;;;11.69;100.00;97770.72;6249107;23;20016;-92
2024/01/17 08:17:44;;;;;;;9.25;2.70;;;;;;;12.44;100.00;97884.38;6249387;23;20019;-93
2024/01/17 08:20:12;;;;;;;6.50;2.70;;;;;;;12.16;100.00;97833.34;6249746;23;20036;-94
2024/01/17 08:22:40;;;;;;;11.50;2.67;;;;;;;11.71;100.00;97761.72;6249919;23;20108;-94
2024/01/17 08:25:09;;;;;;;6.47;2.63;;;;;;;11.83;100.00;97759.41;6250474;23;20059;-93
2024/01/17 08:27:36;;;;;;;8.95;4.65;;;;;;;11.74;100.00;97727.88;6249298;23;20027;-94
2024/01/17 08:30:09;;;;;;;15.20;10.35;;;;;;;12.35;100.00;97823.50;6249011;23;20354;-91
2024/01/17 08:32:36;;;;;;;38.58;23.00;;;;;;;11.86;100.00;97753.91;6248283;23;20020;-92
2024/01/17 08:35:08;;;;;;;17.20;9.18;;;;;;;12.80;100.00;97887.97;6247279;23;20022;-93
2024/01/17 08:37:35;;;;;;;8.63;3.08;;;;;;;12.05;100.00;97759.25;6249010;23;20012;-94
2024/01/17 08:40:03;;;;;;;11.80;7.07;;;;;;;12.23;100.00;97806.31;6249969;22;20016;-93
2024/01/17 08:42:29;;;;;;;16.23;8.25;;;;;;;12.26;100.00;97800.81;6248568;23;20024;-93
2024/01/17 08:44:58;;;;;;;15.45;7.78;;;;;;;11.97;100.00;97733.00;6248193;23;20028;-93
2024/01/17 08:47:24;;;;;;;15.75;9.50;;;;;;;12.04;100.00;97737.06;6247986;23;20107;-92
2024/01/17 08:49:51;;;;;;;7.15;3.80;;;;;;;12.16;100.00;97772.91;6249728;23;20047;-94
2024/01/17 08:52:16;;;;;;;8.48;3.78;;;;;;;12.74;100.00;97854.44;6248941;23;20431;-92
2024/01/17 08:54:42;;;;;;;6.65;2.40;;;;;;;12.66;100.00;97867.31;6248617;23;20027;-92
2024/01/17 08:57:08;;;;;;;5.50;3.53;;;;;;;12.88;100.00;97886.66;6249128;23;20016;-93
2024/01/17 08:59:35;;;;;;;3.92;1.88;;;;;;;11.95;100.00;97732.19;6248993;22;20140;-93
2024/01/17 09:02:02;;;;;;;8.15;3.30;;;;;;;12.13;100.00;97747.25;6248370;23;20027;-94
2024/01/17 09:04:29;;;;;;;10.05;4.22;;;;;;;11.81;100.00;97708.84;6248727;23;20042;-92
2024/01/17 09:06:58;;;;;;;9.10;8.23;;;;;;;12.46;100.00;97805.16;6249337;23;20024;-94
2024/01/17 09:09:25;;;;;;;11.52;8.68;;;;;;;12.81;100.00;97847.00;6249164;22;20442;-93
2024/01/17 09:11:54;;;;;;;8.82;4.82;;;;;;;12.71;100.00;97828.81;6249014;23;20023;-92
2024/01/17 09:14:21;;;;;;;6.45;2.90;;;;;;;12.00;100.00;97703.50;6249243;23;20020;-92
2024/01/17 09:16:48;;;;;;;12.23;3.67;;;;;;;12.74;100.00;97820.63;6247840;22;20020;-92
2024/01/17 09:19:18;;;;;;;6.85;4.03;;;;;;;12.64;100.00;97827.41;6247597;23;20016;-92
2024/01/17 09:21:50;;;;;;;;;;;;;;;12.82;100.00;97862.09;6251023;23;20024;-94
2024/01/17 09:24:20;;;;;;;10.82;5.55;;;;;;;12.42;100.00;97784.06;6250159;23;19915;-95
2024/01/17 09:26:46;;;;;;;10.32;6.43;;;;;;;12.12;100.00;97745.56;6249264;23;20434;-93
2024/01/17 09:29:12;;;;;;;9.63;7.00;;;;;;;12.86;100.00;97855.63;6248560;22;20019;-93
2024/01/17 09:31:38;;;;;;;11.77;5.63;;;;;;;12.09;100.00;97736.84;6249405;23;20024;-95
2024/01/17 09:34:04;;;;;;;6.18;2.67;;;;;;;12.54;100.00;97794.97;6250559;23;20024;-93
2024/01/17 09:36:32;;;;;;;12.15;6.97;;;;;;;12.80;100.00;97840.81;6250082;23;20020;-94
2024/01/17 09:39:05;;;;;;;11.88;7.07;;;;;;;11.97;100.00;97690.38;6250125;22;20016;-94
2024/01/17 09:41:31;;;;;;;8.80;4.50;;;;;;;11.96;100.00;97707.28;6250654;23;20024;-96
2024/01/17 09:44:06;;;;;;;9.98;5.82;;;;;;;12.35;100.00;97772.84;6250568;23;20103;-94
2024/01/17 09:46:34;;;;;;;7.90;3.72;;;;;;;12.19;100.00;97751.44;6247826;23;20012;-95
2024/01/17 09:49:06;;;;;;;16.05;8.73;;;;;;;12.64;100.00;97834.50;6248100;23;20055;-93
2024/01/17 09:51:35;;;;;;;9.68;5.43;;;;;;;12.70;100.00;97842.22;6247854;23;20103;-91
2024/01/17 09:54:04;;;;;;;13.35;6.78;;;;;;;12.47;100.00;97798.91;6247042;23;20032;-93
2024/01/17 09:56:32;;;;;;;14.25;7.70;;;;;;;11.81;100.00;97681.34;6247603;23;20027;-91
2024/01/17 09:59:09;;;;;;;25.60;11.57;;;;;;;11.69;100.00;97648.22;6248005;23;20379;-91
2024/01/17 10:01:43;;;;;;;57.47;21.65;;;;;;;12.15;100.00;97736.53;6245241;23;20027;-93
2024/01/17 10:04:18;;;;;;;61.50;21.42;;;;;;;11.88;100.00;97672.16;6247959;23;20020;-92
2024/01/17 10:06:59;;;;;;;18.73;7.38;;;;;;;11.84;100.00;97670.53;6247812;23;20024;-91
2024/01/17 10:09:46;;;;;;;22.08;10.18;;;;;;;12.47;100.00;97787.34;6247926;22;20020;-94
2024/01/17 10:12:18;;;;;;;26.60;11.88;;;;;;;12.03;100.00;97707.81;6247785;23;20020;-95
2024/01/17 10:14:44;;;;;;;12.00;5.47;;;;;;;12.12;100.00;97720.69;6247942;23;20024;-94
2024/01/17 10:17:10;;;;;;;11.02;4.70;;;;;;;11.91;100.00;97691.53;6242671;23;20019;-94
2024/01/17 10:19:36;;;;;;;10.02;3.97;;;;;;;12.17;100.00;97749.78;6247297;23;20442;-93
2024/01/17 10:22:09;;;;;;;20.55;9.93;;;;;;;12.65;100.00;97812.25;6247350;22;20460;-94
2024/01/17 10:24:36;;;;;;;9.60;5.03;;;;;;;11.75;100.00;97658.53;6249062;23;20008;-90
2024/01/17 10:27:11;;;;;;;19.20;13.95;;;;;;;11.78;100.00;97654.88;6248850;22;20004;-92
2024/01/17 10:29:42;;;;;;;8.10;5.20;;;;;;;11.88;100.00;97669.47;6248448;22;20000;-91
2024/01/17 10:32:37;;;;;;;24.58;19.70;;;;;;;11.68;100.00;97626.03;6245580;23;20032;-92
2024/01/17 10:35:06;;;;;;;15.75;10.10;;;;;;;12.25;100.00;97719.16;6247314;22;20020;-90
2024/01/17 10:37:44;;;;;;;14.00;6.82;;;;;;;12.44;100.00;97740.38;6247209;23;20004;-95
2024/01/17 10:40:13;;;;;;;11.68;6.18;;;;;;;11.99;100.00;97661.84;6248837;22;19999;-95
2024/01/17 10:42:40;;;;;;;8.88;5.13;;;;;;;12.27;100.00;97684.41;6246027;23;20024;-94
2024/01/17 10:45:08;;;;;;;15.18;5.78;;;;;;;12.72;100.00;97760.31;6245973;23;20106;-92
2024/01/17 10:47:34;;;;;;;11.07;4.95;;;;;;;11.98;100.00;97649.44;6246211;23;20027;-93
2024/01/17 10:50:02;;;;;;;10.65;5.05;;;;;;;12.65;100.00;97751.75;6245538;23;20078;-94
2024/01/17 10:52:38;;;;;;;12.60;4.53;;;;;;;11.67;100.00;97575.53;6247792;22;20020;-91
2024/01/17 10:55:10;;;;;;;12.68;7.82;;;;;;;12.19;100.00;97654.59;6246653;23;20024;-94
2024/01/17 10:57:40;;;;;;;10.25;6.38;;;;;;;12.58;100.00;97712.13;6247368;22;20024;-93
2024/01/17 11:00:11;;;;;;;12.88;7.68;;;;;;;12.10;100.00;97624.84;6246237;22;20027;-95
2024/01/17 11:02:40;;;;;;;10.80;5.70;;;;;;;12.34;100.00;97669.84;6246637;23;20021;-94
2024/01/17 11:05:11;;;;;;;;;;;;;;;12.74;100.00;97737.06;6247383;23;20048;-93
2024/01/17 11:07:37;;;;;;;15.80;7.78;;;;;;;11.97;100.00;97599.78;6248468;22;19926;-93
2024/01/17 11:10:10;;;;;;;11.85;5.70;;;;;;;12.66;100.00;97693.94;6247634;23;20027;-93
2024/01/17 11:12:45;;;;;;;15.40;7.95;;;;;;;11.91;100.00;97584.09;6246702;23;20031;-91
2024/01/17 11:15:15;;;;;;;16.27;6.85;;;;;;;11.87;100.00;97570.03;6244189;23;20016;-93
2024/01/17 11:17:50;;;;;;;20.83;6.97;;;;;;;12.37;100.00;97626.16;6247664;23;20020;-94
2024/01/17 11:20:17;;;;;;;12.90;7.20;;;;;;;12.94;100.00;97718.19;6248689;22;20107;-94
2024/01/17 11:22:48;;;;;;;15.48;4.82;;;;;;;12.89;100.00;97711.41;6249061;23;20020;-94
2024/01/17 11:25:26;;;;;;;12.40;5.90;;;;;;;12.75;100.00;97677.44;6248623;23;20073;-94
2024/01/17 11:28:12;;;;;;;15.23;7.35;;;;;;;12.43;100.00;97607.16;6249310;22;20016;-94